DLH7ZO LOWW-EDDM
Flight info
| Callsign | DLH7ZO |
|---|---|
| Flight time | 0h 55m |
| Altitude | 30000 |
| Route | SOVIL1C/29 SOVIL DCT SITNI DCT BAGSI DCT MATIG DCT AMADI Q113 NAPSA NAPSA1B |
| Aircraft | A333/H-SDE3GHIJ2J3J5M1RVWXY/LB2D1 |
Departure
| Time | 2026-05-07 19:22 |
|---|---|
| Airport | Vienna International Airport (LOWW) |
Arrival
| Time | 2026-05-07 20:17 |
|---|---|
| Airport | Munich Airport (EDDM) |
| Time | Latitude | Longitude | Altitude | Speed | Heading |
|---|---|---|---|---|---|
| 2026-05-07 19:04 | 48.11987 | 16.55569 | 591 ft | 0 kts | 101° |
| 2026-05-07 19:09 | 48.11987 | 16.55568 | 592 ft | 1 kts | 101° |
| 2026-05-07 19:10 | 48.11992 | 16.55548 | 592 ft | 2 kts | 128° |
| 2026-05-07 19:10 | 48.12003 | 16.55532 | 592 ft | 2 kts | 150° |
| 2026-05-07 19:10 | 48.12017 | 16.55524 | 591 ft | 2 kts | 174° |
| 2026-05-07 19:10 | 48.12032 | 16.55525 | 591 ft | 2 kts | 197° |
| 2026-05-07 19:11 | 48.12040 | 16.55529 | 591 ft | 0 kts | 208° |
| 2026-05-07 19:11 | 48.12018 | 16.55515 | 591 ft | 6 kts | 205° |
| 2026-05-07 19:11 | 48.11992 | 16.55496 | 592 ft | 1 kts | 206° |
| 2026-05-07 19:11 | 48.11990 | 16.55495 | 592 ft | 0 kts | 206° |
| 2026-05-07 19:13 | 48.11982 | 16.55489 | 592 ft | 4 kts | 206° |
| 2026-05-07 19:14 | 48.11930 | 16.55454 | 591 ft | 12 kts | 198° |
| 2026-05-07 19:14 | 48.11839 | 16.55432 | 592 ft | 10 kts | 174° |
| 2026-05-07 19:14 | 48.11803 | 16.55481 | 591 ft | 7 kts | 121° |
| 2026-05-07 19:14 | 48.11749 | 16.55623 | 591 ft | 23 kts | 117° |
| 2026-05-07 19:15 | 48.11679 | 16.55840 | 592 ft | 22 kts | 117° |
| 2026-05-07 19:15 | 48.11611 | 16.56041 | 596 ft | 20 kts | 116° |
| 2026-05-07 19:15 | 48.11530 | 16.56287 | 600 ft | 29 kts | 115° |
| 2026-05-07 19:15 | 48.11445 | 16.56548 | 609 ft | 25 kts | 116° |
| 2026-05-07 19:16 | 48.11372 | 16.56773 | 611 ft | 21 kts | 117° |
| 2026-05-07 19:16 | 48.11311 | 16.56961 | 613 ft | 19 kts | 116° |
| 2026-05-07 19:16 | 48.11253 | 16.57140 | 613 ft | 14 kts | 116° |
| 2026-05-07 19:16 | 48.11207 | 16.57277 | 612 ft | 15 kts | 116° |
| 2026-05-07 19:17 | 48.11156 | 16.57436 | 609 ft | 16 kts | 116° |
| 2026-05-07 19:17 | 48.11104 | 16.57522 | 608 ft | 8 kts | 174° |
| 2026-05-07 19:17 | 48.11080 | 16.57519 | 608 ft | 0 kts | 191° |
| 2026-05-07 19:17 | 48.11079 | 16.57518 | 608 ft | 0 kts | 194° |
| 2026-05-07 19:18 | 48.11077 | 16.57517 | 608 ft | 0 kts | 194° |
| 2026-05-07 19:18 | 48.11075 | 16.57516 | 608 ft | 0 kts | 194° |
| 2026-05-07 19:18 | 48.11047 | 16.57502 | 608 ft | 10 kts | 204° |
| 2026-05-07 19:19 | 48.10982 | 16.57448 | 609 ft | 9 kts | 227° |
| 2026-05-07 19:19 | 48.10973 | 16.57362 | 611 ft | 8 kts | 285° |
| 2026-05-07 19:19 | 48.10988 | 16.57301 | 612 ft | 0 kts | 296° |
| 2026-05-07 19:21 | 48.10989 | 16.57297 | 612 ft | 3 kts | 296° |
| 2026-05-07 19:21 | 48.11124 | 16.56879 | 612 ft | 86 kts | 295° |
| 2026-05-07 19:22 | 48.11503 | 16.55718 | 593 ft | 158 kts | 296° |
| 2026-05-07 19:22 | 48.12050 | 16.54101 | 1036 ft | 183 kts | 295° |
| 2026-05-07 19:22 | 48.12636 | 16.52396 | 1815 ft | 192 kts | 295° |
| 2026-05-07 19:22 | 48.12965 | 16.50571 | 2794 ft | 181 kts | 263° |
| 2026-05-07 19:23 | 48.12370 | 16.48923 | 3261 ft | 197 kts | 223° |
| 2026-05-07 19:23 | 48.11246 | 16.47572 | 3672 ft | 215 kts | 225° |
| 2026-05-07 19:23 | 48.10186 | 16.45907 | 4112 ft | 232 kts | 233° |
| 2026-05-07 19:23 | 48.09129 | 16.43959 | 4578 ft | 250 kts | 233° |
| 2026-05-07 19:24 | 48.07999 | 16.41879 | 5097 ft | 264 kts | 233° |
| 2026-05-07 19:24 | 48.06875 | 16.39736 | 5734 ft | 269 kts | 235° |
| 2026-05-07 19:24 | 48.05727 | 16.37481 | 6430 ft | 273 kts | 236° |
| 2026-05-07 19:24 | 48.04591 | 16.35210 | 7201 ft | 277 kts | 236° |
| 2026-05-07 19:25 | 48.03608 | 16.32751 | 7997 ft | 276 kts | 252° |
| 2026-05-07 19:25 | 48.03250 | 16.30017 | 8793 ft | 273 kts | 271° |
| 2026-05-07 19:25 | 48.03281 | 16.27211 | 9624 ft | 272 kts | 274° |
| 2026-05-07 19:25 | 48.03350 | 16.24409 | 10430 ft | 273 kts | 274° |
| 2026-05-07 19:26 | 48.03420 | 16.21607 | 11231 ft | 273 kts | 274° |
| 2026-05-07 19:26 | 48.03485 | 16.18805 | 12032 ft | 273 kts | 273° |
| 2026-05-07 19:26 | 48.03542 | 16.15993 | 12835 ft | 273 kts | 272° |
| 2026-05-07 19:26 | 48.03594 | 16.13172 | 13647 ft | 272 kts | 272° |
| 2026-05-07 19:27 | 48.03643 | 16.10384 | 14445 ft | 271 kts | 272° |
| 2026-05-07 19:27 | 48.03693 | 16.07557 | 14996 ft | 280 kts | 272° |
| 2026-05-07 19:27 | 48.03744 | 16.04581 | 15318 ft | 297 kts | 271° |
| 2026-05-07 19:27 | 48.03795 | 16.01404 | 15630 ft | 314 kts | 271° |
| 2026-05-07 19:28 | 48.03847 | 15.98056 | 15945 ft | 331 kts | 271° |
| 2026-05-07 19:28 | 48.03901 | 15.94557 | 16357 ft | 344 kts | 271° |
| 2026-05-07 19:28 | 48.03955 | 15.90963 | 17008 ft | 350 kts | 271° |
| 2026-05-07 19:28 | 48.04009 | 15.87353 | 17696 ft | 354 kts | 270° |
| 2026-05-07 19:29 | 48.04063 | 15.83643 | 18361 ft | 358 kts | 270° |
| 2026-05-07 19:29 | 48.04116 | 15.79938 | 19026 ft | 363 kts | 270° |
| 2026-05-07 19:29 | 48.04166 | 15.76195 | 19700 ft | 366 kts | 270° |
| 2026-05-07 19:29 | 48.04218 | 15.72379 | 20380 ft | 370 kts | 269° |
| 2026-05-07 19:30 | 48.04268 | 15.68566 | 21041 ft | 372 kts | 269° |
| 2026-05-07 19:30 | 48.04317 | 15.64682 | 21646 ft | 377 kts | 269° |
| 2026-05-07 19:30 | 48.04366 | 15.60754 | 22250 ft | 380 kts | 269° |
| 2026-05-07 19:30 | 48.04414 | 15.56807 | 22853 ft | 383 kts | 269° |
| 2026-05-07 19:31 | 48.04461 | 15.52822 | 23410 ft | 387 kts | 269° |
| 2026-05-07 19:31 | 48.04509 | 15.48799 | 23922 ft | 392 kts | 269° |
| 2026-05-07 19:31 | 48.04552 | 15.44747 | 24464 ft | 395 kts | 269° |
| 2026-05-07 19:31 | 48.04595 | 15.40658 | 25018 ft | 398 kts | 269° |
| 2026-05-07 19:32 | 48.04641 | 15.36556 | 25652 ft | 398 kts | 269° |
| 2026-05-07 19:32 | 48.04705 | 15.32384 | 26021 ft | 404 kts | 269° |
| 2026-05-07 19:32 | 48.04773 | 15.28185 | 26253 ft | 414 kts | 269° |
| 2026-05-07 19:32 | 48.04843 | 15.23841 | 26448 ft | 423 kts | 269° |
| 2026-05-07 19:33 | 48.04912 | 15.19408 | 26653 ft | 432 kts | 269° |
| 2026-05-07 19:33 | 48.04982 | 15.14875 | 26844 ft | 441 kts | 269° |
| 2026-05-07 19:33 | 48.05049 | 15.10271 | 27019 ft | 450 kts | 269° |
| 2026-05-07 19:33 | 48.05117 | 15.05578 | 27035 ft | 459 kts | 269° |
| 2026-05-07 19:34 | 48.05185 | 15.00782 | 27039 ft | 461 kts | 269° |
| 2026-05-07 19:34 | 48.05250 | 14.95985 | 27053 ft | 462 kts | 269° |
| 2026-05-07 19:34 | 48.05314 | 14.91225 | 27055 ft | 462 kts | 269° |
| 2026-05-07 19:34 | 48.05374 | 14.86426 | 27056 ft | 461 kts | 269° |
| 2026-05-07 19:35 | 48.05431 | 14.81681 | 27055 ft | 461 kts | 269° |
| 2026-05-07 19:35 | 48.05473 | 14.76932 | 27055 ft | 460 kts | 269° |
| 2026-05-07 19:35 | 48.05510 | 14.72156 | 27057 ft | 460 kts | 269° |
| 2026-05-07 19:35 | 48.05545 | 14.67399 | 27058 ft | 459 kts | 269° |
| 2026-05-07 19:36 | 48.05578 | 14.62674 | 27054 ft | 459 kts | 269° |
| 2026-05-07 19:36 | 48.05610 | 14.57910 | 27059 ft | 458 kts | 269° |
| 2026-05-07 19:36 | 48.05640 | 14.53191 | 27061 ft | 457 kts | 269° |
| 2026-05-07 19:36 | 48.05670 | 14.48438 | 27056 ft | 456 kts | 269° |
| 2026-05-07 19:37 | 48.05698 | 14.43724 | 27054 ft | 456 kts | 269° |
| 2026-05-07 19:37 | 48.05724 | 14.38970 | 27062 ft | 456 kts | 270° |
| 2026-05-07 19:37 | 48.05746 | 14.34277 | 27064 ft | 455 kts | 269° |
| 2026-05-07 19:37 | 48.05766 | 14.29523 | 27061 ft | 454 kts | 269° |
| 2026-05-07 19:38 | 48.05786 | 14.24837 | 27063 ft | 454 kts | 269° |
| 2026-05-07 19:38 | 48.05803 | 14.20143 | 27063 ft | 454 kts | 269° |
| 2026-05-07 19:38 | 48.05818 | 14.15428 | 27062 ft | 454 kts | 269° |
| 2026-05-07 19:38 | 48.05831 | 14.10716 | 27063 ft | 454 kts | 269° |
| 2026-05-07 19:39 | 48.05842 | 14.06049 | 27059 ft | 453 kts | 269° |
| 2026-05-07 19:39 | 48.05852 | 14.01319 | 27063 ft | 454 kts | 269° |
| 2026-05-07 19:39 | 48.05860 | 13.96665 | 27064 ft | 454 kts | 270° |
| 2026-05-07 19:39 | 48.05866 | 13.91981 | 27063 ft | 453 kts | 270° |
| 2026-05-07 19:40 | 48.05870 | 13.87250 | 27062 ft | 453 kts | 270° |
| 2026-05-07 19:40 | 48.05873 | 13.82566 | 27059 ft | 452 kts | 270° |
| 2026-05-07 19:40 | 48.05875 | 13.77898 | 27057 ft | 452 kts | 270° |
| 2026-05-07 19:40 | 48.05875 | 13.73200 | 27059 ft | 452 kts | 270° |
| 2026-05-07 19:41 | 48.05872 | 13.68550 | 27057 ft | 452 kts | 270° |
| 2026-05-07 19:41 | 48.05866 | 13.63827 | 27058 ft | 452 kts | 270° |
| 2026-05-07 19:41 | 48.05857 | 13.59185 | 27057 ft | 452 kts | 270° |
| 2026-05-07 19:41 | 48.05868 | 13.54495 | 27056 ft | 452 kts | 272° |
| 2026-05-07 19:42 | 48.06062 | 13.49829 | 27056 ft | 452 kts | 274° |
| 2026-05-07 19:42 | 48.06310 | 13.45166 | 27057 ft | 452 kts | 275° |
| 2026-05-07 19:42 | 48.06570 | 13.40468 | 26978 ft | 449 kts | 275° |
| 2026-05-07 19:42 | 48.06821 | 13.35901 | 26439 ft | 447 kts | 275° |
| 2026-05-07 19:43 | 48.07072 | 13.31275 | 25567 ft | 442 kts | 274° |
| 2026-05-07 19:43 | 48.07309 | 13.26812 | 24627 ft | 425 kts | 274° |
| 2026-05-07 19:43 | 48.07537 | 13.22494 | 23928 ft | 414 kts | 274° |
| 2026-05-07 19:43 | 48.07760 | 13.18249 | 23531 ft | 407 kts | 274° |
| 2026-05-07 19:44 | 48.07976 | 13.14097 | 23132 ft | 402 kts | 274° |
| 2026-05-07 19:44 | 48.08188 | 13.09957 | 22731 ft | 396 kts | 274° |
| 2026-05-07 19:44 | 48.08394 | 13.05922 | 22340 ft | 390 kts | 274° |
| 2026-05-07 19:44 | 48.08597 | 13.01887 | 21934 ft | 386 kts | 274° |
| 2026-05-07 19:45 | 48.08796 | 12.97917 | 21473 ft | 382 kts | 274° |
| 2026-05-07 19:45 | 48.08991 | 12.94012 | 20986 ft | 380 kts | 274° |
| 2026-05-07 19:45 | 48.09243 | 12.90090 | 20515 ft | 377 kts | 277° |
| 2026-05-07 19:45 | 48.09601 | 12.86204 | 20057 ft | 374 kts | 278° |
| 2026-05-07 19:46 | 48.09963 | 12.82413 | 19608 ft | 372 kts | 278° |
| 2026-05-07 19:46 | 48.10327 | 12.78610 | 19176 ft | 368 kts | 278° |
| 2026-05-07 19:46 | 48.10686 | 12.74845 | 18840 ft | 363 kts | 278° |
| 2026-05-07 19:46 | 48.11035 | 12.71142 | 18474 ft | 359 kts | 278° |
| 2026-05-07 19:47 | 48.11382 | 12.67453 | 17897 ft | 361 kts | 278° |
| 2026-05-07 19:47 | 48.11726 | 12.63757 | 17400 ft | 360 kts | 278° |
| 2026-05-07 19:47 | 48.12069 | 12.60068 | 16972 ft | 357 kts | 278° |
| 2026-05-07 19:47 | 48.12404 | 12.56448 | 16542 ft | 355 kts | 278° |
| 2026-05-07 19:48 | 48.12736 | 12.52851 | 15705 ft | 350 kts | 278° |
| 2026-05-07 19:48 | 48.13063 | 12.49298 | 14732 ft | 346 kts | 278° |
| 2026-05-07 19:48 | 48.13385 | 12.45782 | 13805 ft | 340 kts | 278° |
| 2026-05-07 19:48 | 48.13701 | 12.42316 | 13024 ft | 331 kts | 278° |
| 2026-05-07 19:49 | 48.14005 | 12.38983 | 12516 ft | 316 kts | 278° |
| 2026-05-07 19:49 | 48.14262 | 12.35805 | 12039 ft | 302 kts | 274° |
| 2026-05-07 19:49 | 48.14266 | 12.32773 | 11612 ft | 290 kts | 266° |
| 2026-05-07 19:49 | 48.14078 | 12.29807 | 11214 ft | 279 kts | 264° |
| 2026-05-07 19:50 | 48.13871 | 12.26984 | 10920 ft | 274 kts | 264° |
| 2026-05-07 19:50 | 48.13661 | 12.24155 | 10633 ft | 273 kts | 264° |
| 2026-05-07 19:50 | 48.13453 | 12.21348 | 10338 ft | 273 kts | 264° |
| 2026-05-07 19:50 | 48.13246 | 12.18549 | 10142 ft | 269 kts | 264° |
| 2026-05-07 19:51 | 48.13041 | 12.15769 | 10087 ft | 271 kts | 264° |
| 2026-05-07 19:51 | 48.12832 | 12.12939 | 10066 ft | 272 kts | 264° |
| 2026-05-07 19:51 | 48.12624 | 12.10130 | 10056 ft | 272 kts | 264° |
| 2026-05-07 19:51 | 48.12421 | 12.07338 | 10051 ft | 272 kts | 265° |
| 2026-05-07 19:52 | 48.12617 | 12.04554 | 10036 ft | 273 kts | 290° |
| 2026-05-07 19:52 | 48.13651 | 12.02186 | 9955 ft | 274 kts | 315° |
| 2026-05-07 19:52 | 48.15296 | 12.00755 | 9632 ft | 280 kts | 341° |
| 2026-05-07 19:52 | 48.17236 | 12.00589 | 9307 ft | 287 kts | 8° |
| 2026-05-07 19:53 | 48.19069 | 12.01766 | 9022 ft | 291 kts | 35° |
| 2026-05-07 19:53 | 48.20453 | 12.03953 | 8761 ft | 292 kts | 51° |
| 2026-05-07 19:53 | 48.21640 | 12.06433 | 8493 ft | 292 kts | 53° |
| 2026-05-07 19:53 | 48.22774 | 12.08920 | 8227 ft | 290 kts | 54° |
| 2026-05-07 19:54 | 48.23908 | 12.11427 | 7964 ft | 289 kts | 54° |
| 2026-05-07 19:54 | 48.25032 | 12.13911 | 7698 ft | 288 kts | 54° |
| 2026-05-07 19:54 | 48.26154 | 12.16385 | 7439 ft | 287 kts | 54° |
| 2026-05-07 19:54 | 48.27253 | 12.18873 | 7185 ft | 285 kts | 61° |
| 2026-05-07 19:55 | 48.27821 | 12.21649 | 7049 ft | 280 kts | 80° |
| 2026-05-07 19:55 | 48.28074 | 12.24523 | 6927 ft | 273 kts | 83° |
| 2026-05-07 19:55 | 48.28267 | 12.27308 | 6705 ft | 263 kts | 84° |
| 2026-05-07 19:55 | 48.28594 | 12.29947 | 6486 ft | 253 kts | 64° |
| 2026-05-07 19:56 | 48.29622 | 12.31966 | 6318 ft | 246 kts | 33° |
| 2026-05-07 19:56 | 48.31168 | 12.32916 | 6099 ft | 238 kts | 3° |
| 2026-05-07 19:56 | 48.32812 | 12.32995 | 6059 ft | 237 kts | 355° |
| 2026-05-07 19:56 | 48.34386 | 12.32421 | 6036 ft | 233 kts | 326° |
| 2026-05-07 19:57 | 48.35515 | 12.30738 | 6055 ft | 230 kts | 301° |
| 2026-05-07 19:57 | 48.36286 | 12.28670 | 6060 ft | 229 kts | 295° |
| 2026-05-07 19:57 | 48.36992 | 12.26504 | 6050 ft | 229 kts | 291° |
| 2026-05-07 19:57 | 48.37446 | 12.24220 | 6048 ft | 229 kts | 278° |
| 2026-05-07 19:58 | 48.37537 | 12.21853 | 6051 ft | 231 kts | 268° |
| 2026-05-07 19:58 | 48.37465 | 12.19458 | 6038 ft | 223 kts | 266° |
| 2026-05-07 19:58 | 48.37357 | 12.17183 | 6030 ft | 212 kts | 265° |
| 2026-05-07 19:58 | 48.37219 | 12.14994 | 5941 ft | 213 kts | 264° |
| 2026-05-07 19:59 | 48.37057 | 12.12764 | 5680 ft | 215 kts | 263° |
| 2026-05-07 19:59 | 48.36882 | 12.10535 | 5392 ft | 217 kts | 263° |
| 2026-05-07 19:59 | 48.36698 | 12.08267 | 5099 ft | 219 kts | 263° |
| 2026-05-07 19:59 | 48.36513 | 12.06013 | 4780 ft | 219 kts | 263° |
| 2026-05-07 20:00 | 48.36328 | 12.03772 | 4491 ft | 214 kts | 264° |
| 2026-05-07 20:00 | 48.36150 | 12.01586 | 4219 ft | 206 kts | 264° |
| 2026-05-07 20:00 | 48.35981 | 11.99494 | 3962 ft | 197 kts | 264° |
| 2026-05-07 20:00 | 48.35820 | 11.97500 | 3729 ft | 185 kts | 264° |
| 2026-05-07 20:01 | 48.35670 | 11.95617 | 3480 ft | 179 kts | 264° |
| 2026-05-07 20:01 | 48.35527 | 11.93819 | 3233 ft | 170 kts | 265° |
| 2026-05-07 20:01 | 48.35390 | 11.92084 | 3007 ft | 165 kts | 265° |
| 2026-05-07 20:01 | 48.35257 | 11.90399 | 2783 ft | 157 kts | 265° |
| 2026-05-07 20:02 | 48.35133 | 11.88828 | 2580 ft | 149 kts | 265° |
| 2026-05-07 20:02 | 48.35011 | 11.87276 | 2393 ft | 148 kts | 265° |
| 2026-05-07 20:02 | 48.34891 | 11.85745 | 2203 ft | 148 kts | 265° |
| 2026-05-07 20:02 | 48.34771 | 11.84207 | 2004 ft | 149 kts | 265° |
| 2026-05-07 20:03 | 48.34651 | 11.82671 | 1820 ft | 150 kts | 265° |
| 2026-05-07 20:03 | 48.34521 | 11.80965 | 2145 ft | 174 kts | 265° |
| 2026-05-07 20:03 | 48.34381 | 11.79059 | 2673 ft | 196 kts | 265° |
| 2026-05-07 20:03 | 48.34229 | 11.76966 | 3437 ft | 209 kts | 265° |
| 2026-05-07 20:04 | 48.34070 | 11.74714 | 4122 ft | 228 kts | 265° |
| 2026-05-07 20:04 | 48.33741 | 11.72270 | 4709 ft | 254 kts | 249° |
| 2026-05-07 20:04 | 48.32774 | 11.69934 | 5366 ft | 278 kts | 228° |
| 2026-05-07 20:04 | 48.31280 | 11.68281 | 5868 ft | 256 kts | 202° |
| 2026-05-07 20:05 | 48.29630 | 11.67681 | 6053 ft | 238 kts | 198° |
| 2026-05-07 20:05 | 48.28247 | 11.66551 | 6045 ft | 223 kts | 229° |
| 2026-05-07 20:05 | 48.27407 | 11.64601 | 6068 ft | 224 kts | 240° |
| 2026-05-07 20:05 | 48.26353 | 11.62916 | 6050 ft | 227 kts | 210° |
| 2026-05-07 20:06 | 48.24822 | 11.62346 | 6055 ft | 232 kts | 178° |
| 2026-05-07 20:06 | 48.23292 | 11.63113 | 6056 ft | 237 kts | 146° |
| 2026-05-07 20:06 | 48.22048 | 11.64725 | 6064 ft | 238 kts | 137° |
| 2026-05-07 20:06 | 48.20905 | 11.66518 | 6062 ft | 238 kts | 132° |
| 2026-05-07 20:07 | 48.19871 | 11.68449 | 6056 ft | 239 kts | 124° |
| 2026-05-07 20:07 | 48.19302 | 11.70769 | 6051 ft | 239 kts | 94° |
| 2026-05-07 20:07 | 48.19312 | 11.73250 | 6060 ft | 240 kts | 84° |
| 2026-05-07 20:07 | 48.19546 | 11.75709 | 6059 ft | 239 kts | 79° |
| 2026-05-07 20:08 | 48.19853 | 11.78128 | 5942 ft | 236 kts | 78° |
| 2026-05-07 20:08 | 48.20174 | 11.80548 | 5711 ft | 237 kts | 78° |
| 2026-05-07 20:08 | 48.20497 | 11.82981 | 5498 ft | 237 kts | 78° |
| 2026-05-07 20:08 | 48.20817 | 11.85393 | 5303 ft | 236 kts | 78° |
| 2026-05-07 20:09 | 48.21132 | 11.87781 | 5113 ft | 235 kts | 78° |
| 2026-05-07 20:09 | 48.21442 | 11.90146 | 5056 ft | 233 kts | 78° |
| 2026-05-07 20:09 | 48.21755 | 11.92541 | 5053 ft | 234 kts | 78° |
| 2026-05-07 20:10 | 48.22378 | 11.97329 | 5054 ft | 234 kts | 78° |
| 2026-05-07 20:10 | 48.22688 | 11.99741 | 5052 ft | 235 kts | 78° |
| 2026-05-07 20:10 | 48.22995 | 12.02126 | 5050 ft | 235 kts | 78° |
| 2026-05-07 20:10 | 48.23424 | 12.04488 | 5048 ft | 233 kts | 66° |
| 2026-05-07 20:11 | 48.24155 | 12.06629 | 5042 ft | 232 kts | 51° |
| 2026-05-07 20:11 | 48.25435 | 12.07971 | 5032 ft | 228 kts | 10° |
| 2026-05-07 20:11 | 48.27007 | 12.08040 | 5052 ft | 227 kts | 354° |
| 2026-05-07 20:11 | 48.28581 | 12.07876 | 5008 ft | 224 kts | 355° |
| 2026-05-07 20:12 | 48.30135 | 12.07752 | 4883 ft | 220 kts | 356° |
| 2026-05-07 20:12 | 48.31635 | 12.07672 | 4771 ft | 215 kts | 357° |
| 2026-05-07 20:12 | 48.33116 | 12.07619 | 4654 ft | 209 kts | 357° |
| 2026-05-07 20:12 | 48.34534 | 12.07479 | 4513 ft | 202 kts | 342° |
| 2026-05-07 20:13 | 48.35667 | 12.06326 | 4353 ft | 196 kts | 304° |
| 2026-05-07 20:13 | 48.36118 | 12.04435 | 4366 ft | 196 kts | 278° |
| 2026-05-07 20:13 | 48.36143 | 12.02368 | 4314 ft | 197 kts | 268° |
| 2026-05-07 20:13 | 48.36040 | 12.00320 | 4065 ft | 197 kts | 265° |
| 2026-05-07 20:14 | 48.35890 | 11.98273 | 3806 ft | 197 kts | 264° |
| 2026-05-07 20:14 | 48.35727 | 11.96257 | 3534 ft | 195 kts | 264° |
| 2026-05-07 20:14 | 48.35566 | 11.94280 | 3295 ft | 187 kts | 264° |
| 2026-05-07 20:14 | 48.35414 | 11.92393 | 3050 ft | 176 kts | 264° |
| 2026-05-07 20:15 | 48.35272 | 11.90604 | 2817 ft | 170 kts | 264° |
| 2026-05-07 20:15 | 48.35138 | 11.88888 | 2596 ft | 162 kts | 265° |
| 2026-05-07 20:15 | 48.35009 | 11.87248 | 2385 ft | 154 kts | 265° |
| 2026-05-07 20:15 | 48.34884 | 11.85685 | 2195 ft | 151 kts | 264° |
| 2026-05-07 20:16 | 48.34754 | 11.84100 | 2008 ft | 151 kts | 264° |
| 2026-05-07 20:16 | 48.34624 | 11.82546 | 1801 ft | 149 kts | 265° |
| 2026-05-07 20:16 | 48.34506 | 11.81012 | 1614 ft | 150 kts | 265° |
| 2026-05-07 20:16 | 48.34390 | 11.79444 | 1523 ft | 148 kts | 265° |
| 2026-05-07 20:17 | 48.34282 | 11.77998 | 1485 ft | 130 kts | 265° |
| 2026-05-07 20:17 | 48.34204 | 11.76858 | 1489 ft | 79 kts | 263° |
| 2026-05-07 20:17 | 48.34201 | 11.76407 | 1490 ft | 23 kts | 290° |
| 2026-05-07 20:17 | 48.34253 | 11.76218 | 1490 ft | 11 kts | 296° |
| 2026-05-07 20:18 | 48.34274 | 11.76150 | 1490 ft | 7 kts | 296° |
| 2026-05-07 20:18 | 48.34298 | 11.76070 | 1490 ft | 9 kts | 291° |
| 2026-05-07 20:18 | 48.34322 | 11.75974 | 1490 ft | 10 kts | 294° |
| 2026-05-07 20:18 | 48.34363 | 11.75886 | 1490 ft | 10 kts | 302° |
| 2026-05-07 20:19 | 48.34407 | 11.75807 | 1490 ft | 10 kts | 325° |
| 2026-05-07 20:19 | 48.34472 | 11.75785 | 1490 ft | 8 kts | 23° |
| 2026-05-07 20:19 | 48.34508 | 11.75865 | 1490 ft | 9 kts | 70° |
| 2026-05-07 20:19 | 48.34517 | 11.75972 | 1490 ft | 10 kts | 84° |
| 2026-05-07 20:20 | 48.34526 | 11.76091 | 1490 ft | 11 kts | 83° |
| 2026-05-07 20:20 | 48.34535 | 11.76221 | 1489 ft | 13 kts | 84° |
| 2026-05-07 20:20 | 48.34547 | 11.76375 | 1487 ft | 15 kts | 83° |
| 2026-05-07 20:20 | 48.34561 | 11.76547 | 1485 ft | 17 kts | 84° |
| 2026-05-07 20:21 | 48.34579 | 11.76772 | 1482 ft | 27 kts | 83° |
| 2026-05-07 20:21 | 48.34601 | 11.77056 | 1481 ft | 27 kts | 84° |
| 2026-05-07 20:21 | 48.34622 | 11.77331 | 1481 ft | 25 kts | 83° |
| 2026-05-07 20:21 | 48.34642 | 11.77588 | 1481 ft | 24 kts | 83° |
| 2026-05-07 20:22 | 48.34661 | 11.77842 | 1478 ft | 24 kts | 83° |
| 2026-05-07 20:22 | 48.34674 | 11.78026 | 1477 ft | 15 kts | 83° |
| 2026-05-07 20:22 | 48.34704 | 11.78382 | 1478 ft | 38 kts | 83° |
| 2026-05-07 20:22 | 48.34726 | 11.78705 | 1482 ft | 28 kts | 83° |
| 2026-05-07 20:23 | 48.34750 | 11.78992 | 1481 ft | 27 kts | 83° |
| 2026-05-07 20:23 | 48.34775 | 11.79344 | 1477 ft | 31 kts | 83° |
| 2026-05-07 20:23 | 48.34799 | 11.79606 | 1474 ft | 18 kts | 81° |
| 2026-05-07 20:23 | 48.34835 | 11.79700 | 1474 ft | 5 kts | 360° |
| 2026-05-07 20:24 | 48.34878 | 11.79687 | 1474 ft | 11 kts | 350° |
| 2026-05-07 20:24 | 48.35019 | 11.79663 | 1474 ft | 19 kts | 354° |
| 2026-05-07 20:24 | 48.35151 | 11.79646 | 1472 ft | 17 kts | 355° |
| 2026-05-07 20:24 | 48.35272 | 11.79622 | 1471 ft | 15 kts | 352° |
| 2026-05-07 20:25 | 48.35337 | 11.79628 | 1471 ft | 6 kts | 44° |
| 2026-05-07 20:25 | 48.35351 | 11.79691 | 1471 ft | 7 kts | 81° |
| 2026-05-07 20:25 | 48.35357 | 11.79752 | 1471 ft | 1 kts | 84° |
| 2026-05-07 20:25 | 48.35357 | 11.79758 | 1471 ft | 0 kts | 84° |